Time;durP1;ratioP1;P1;durP2;ratioP2;P2;SDS_P1;SDS_P2;PMS_P1;PMS_P2;Temp;Humidity;BMP_temperature;BMP_pressure;BME280_temperature;BME280_humidity;BME280_pressure;Samples;Min_cycle;Max_cycle;Signal;HPM_P1;HPM_P2
2021/05/07 00:02:24;;;;;;;27.20;20.90;;;5.60;99.90;;;;;;5070625;28;20020;-63
2021/05/07 00:04:50;;;;;;;27.00;20.98;;;5.60;99.90;;;;;;5070967;28;20029;-62
2021/05/07 00:07:16;;;;;;;26.95;20.38;;;5.50;99.90;;;;;;5070843;28;20032;-63
2021/05/07 00:09:41;;;;;;;33.10;20.77;;;5.50;99.90;;;;;;5074229;28;20031;-63
2021/05/07 00:12:08;;;;;;;26.95;21.35;;;5.50;99.90;;;;;;5073687;28;20016;-62
2021/05/07 00:14:34;;;;;;;28.23;21.13;;;5.50;99.90;;;;;;5073286;28;20020;-62
2021/05/07 00:17:00;;;;;;;29.75;19.92;;;5.40;99.90;;;;;;5075036;28;20146;-62
2021/05/07 00:19:25;;;;;;;28.55;21.60;;;5.40;99.90;;;;;;5073423;28;20059;-62
2021/05/07 00:21:51;;;;;;;28.60;21.20;;;5.30;99.90;;;;;;5074755;28;20032;-62
2021/05/07 00:24:17;;;;;;;27.77;20.65;;;5.40;99.90;;;;;;5073429;28;20497;-62
2021/05/07 00:26:42;;;;;;;25.20;20.67;;;5.40;99.90;;;;;;5073409;28;20052;-62
2021/05/07 00:29:08;;;;;;;31.95;20.52;;;5.30;99.90;;;;;;5073248;28;20029;-62
2021/05/07 00:31:33;;;;;;;29.67;19.02;;;5.30;99.90;;;;;;5074203;28;20528;-62
2021/05/07 00:33:59;;;;;;;28.52;20.67;;;5.30;99.90;;;;;;5072985;28;20105;-63
2021/05/07 00:36:25;;;;;;;30.70;19.17;;;5.30;99.90;;;;;;5074631;28;20031;-63
2021/05/07 00:38:50;;;;;;;25.92;18.73;;;5.30;99.90;;;;;;5074163;28;20024;-62
2021/05/07 00:41:17;;;;;;;28.83;19.25;;;5.30;99.90;;;;;;5074469;28;20473;-62
2021/05/07 00:43:42;;;;;;;28.73;19.80;;;5.30;99.90;;;;;;5074278;28;20568;-62
2021/05/07 00:46:08;;;;;;;26.67;19.27;;;5.20;99.90;;;;;;5073335;28;20060;-62
2021/05/07 00:48:35;;;;;;;24.67;18.92;;;5.20;99.90;;;;;;5074419;28;20032;-62
2021/05/07 00:51:01;;;;;;;29.48;19.80;;;5.20;99.90;;;;;;5073975;28;20241;-63
2021/05/07 00:53:29;;;;;;;28.98;19.67;;;5.20;99.90;;;;;;5074081;28;20071;-62
2021/05/07 00:55:55;;;;;;;24.77;19.27;;;5.20;99.90;;;;;;5073977;28;20029;-63
2021/05/07 00:58:22;;;;;;;24.73;19.80;;;5.20;99.90;;;;;;5074376;28;20035;-62
2021/05/07 01:00:52;;;;;;;27.67;20.15;;;5.20;99.90;;;;;;5073860;28;20057;-62
2021/05/07 01:03:18;;;;;;;29.60;19.40;;;5.20;99.90;;;;;;5073853;28;20029;-63
2021/05/07 01:05:44;;;;;;;27.40;19.92;;;5.20;99.90;;;;;;5073995;28;20633;-62
2021/05/07 01:08:10;;;;;;;27.23;20.25;;;5.30;99.90;;;;;;5073907;28;20017;-62
2021/05/07 01:10:35;;;;;;;27.60;19.65;;;5.30;99.90;;;;;;5073806;28;20043;-62
2021/05/07 01:13:01;;;;;;;28.30;19.83;;;5.30;99.90;;;;;;5073742;28;20409;-62
2021/05/07 01:15:27;;;;;;;23.25;18.75;;;5.30;99.90;;;;;;5073862;28;20028;-62
2021/05/07 01:17:55;;;;;;;31.00;19.63;;;5.30;99.90;;;;;;5073773;28;20020;-62
2021/05/07 01:20:32;;;;;;;26.15;19.25;;;5.30;99.90;;;;;;5073622;28;20028;-62
2021/05/07 01:23:00;;;;;;;26.58;19.98;;;5.30;99.90;;;;;;5072189;28;20048;-63
2021/05/07 01:25:29;;;;;;;30.88;19.92;;;5.30;99.90;;;;;;5073318;28;20048;-63
2021/05/07 01:28:01;;;;;;;25.92;19.50;;;5.30;99.90;;;;;;5073598;28;20388;-62
2021/05/07 01:30:30;;;;;;;26.15;18.95;;;5.20;99.90;;;;;;5072131;28;20032;-63
2021/05/07 01:32:56;;;;;;;25.00;19.38;;;5.20;99.90;;;;;;5073457;28;20479;-63
2021/05/07 01:35:29;;;;;;;25.55;19.25;;;5.10;99.90;;;;;;5072384;28;20027;-62
2021/05/07 01:37:57;;;;;;;33.45;21.38;;;5.20;99.90;;;;;;5073385;28;20021;-63
2021/05/07 01:40:30;;;;;;;30.40;20.15;;;5.20;99.90;;;;;;5073183;28;20029;-62
2021/05/07 01:42:57;;;;;;;27.52;19.27;;;5.20;99.90;;;;;;5072006;28;20024;-63
2021/05/07 01:45:24;;;;;;;29.48;19.55;;;5.20;99.90;;;;;;5071940;28;20513;-62
2021/05/07 01:47:51;;;;;;;29.70;20.30;;;5.20;99.90;;;;;;5072133;28;20358;-63
2021/05/07 01:50:19;;;;;;;30.42;20.05;;;5.20;99.90;;;;;;5071368;28;20025;-62
2021/05/07 01:52:45;;;;;;;26.60;19.65;;;5.20;99.90;;;;;;5072933;28;20491;-62
2021/05/07 01:55:14;;;;;;;27.58;19.27;;;5.20;99.90;;;;;;5073049;28;20020;-62
2021/05/07 01:57:40;;;;;;;28.27;20.50;;;5.20;99.90;;;;;;5072921;28;20037;-62
2021/05/07 02:00:08;;;;;;;29.15;20.40;;;5.20;99.90;;;;;;5071442;28;20029;-63
2021/05/07 02:02:33;;;;;;;27.27;19.92;;;5.20;99.90;;;;;;5072456;28;20024;-62
2021/05/07 02:04:59;;;;;;;30.83;20.20;;;5.20;99.90;;;;;;5072744;28;20137;-62
2021/05/07 02:07:25;;;;;;;28.75;19.92;;;5.20;99.90;;;;;;5072788;28;20036;-62
2021/05/07 02:09:50;;;;;;;26.73;20.02;;;5.20;99.90;;;;;;5072485;28;20055;-62
2021/05/07 02:12:16;;;;;;;27.80;18.27;;;5.20;99.90;;;;;;5072850;28;20430;-63
2021/05/07 02:14:42;;;;;;;28.02;19.25;;;5.00;99.90;;;;;;5071135;28;20052;-62
2021/05/07 02:17:08;;;;;;;27.08;19.67;;;4.90;99.90;;;;;;5072482;28;20012;-62
2021/05/07 02:19:33;;;;;;;29.70;21.10;;;4.70;99.90;;;;;;5071185;28;20056;-62
2021/05/07 02:21:59;;;;;;;28.00;19.65;;;4.70;99.90;;;;;;5072411;28;20036;-63
2021/05/07 02:24:25;;;;;;;28.02;19.95;;;4.70;99.90;;;;;;5072145;28;20097;-62
2021/05/07 02:26:50;;;;;;;28.35;20.20;;;4.70;99.90;;;;;;5070906;28;20105;-62
2021/05/07 02:29:17;;;;;;;26.75;20.23;;;4.70;99.90;;;;;;5070746;28;20028;-63
2021/05/07 02:31:43;;;;;;;30.15;19.55;;;4.60;99.90;;;;;;5071209;28;20402;-63
2021/05/07 02:34:10;;;;;;;32.60;21.23;;;4.70;99.90;;;;;;5072083;28;20108;-62
2021/05/07 02:36:36;;;;;;;33.53;20.85;;;4.70;99.90;;;;;;5072050;28;20052;-63
2021/05/07 02:39:03;;;;;;;30.17;19.83;;;4.80;99.90;;;;;;5072019;28;20032;-63
2021/05/07 02:41:29;;;;;;;31.92;20.00;;;4.80;99.90;;;;;;5070852;28;20102;-62
2021/05/07 02:43:55;;;;;;;25.52;19.48;;;4.80;99.90;;;;;;5071728;28;20078;-62
2021/05/07 02:46:20;;;;;;;26.98;18.23;;;4.90;99.90;;;;;;5072105;28;20025;-62
2021/05/07 02:48:46;;;;;;;26.88;17.58;;;5.00;99.90;;;;;;5071723;28;20055;-62
2021/05/07 02:51:11;;;;;;;24.40;17.70;;;5.10;99.90;;;;;;5070463;28;20052;-62
2021/05/07 02:53:37;;;;;;;25.27;18.65;;;5.20;99.90;;;;;;5071922;28;20096;-62
2021/05/07 02:56:03;;;;;;;24.23;17.45;;;5.20;99.90;;;;;;5071758;28;20020;-62
2021/05/07 02:58:28;;;;;;;23.20;17.13;;;5.20;99.90;;;;;;5071869;28;20021;-62
2021/05/07 03:00:54;;;;;;;27.13;18.13;;;5.20;99.90;;;;;;5072094;28;20036;-62
2021/05/07 03:03:20;;;;;;;25.92;18.15;;;5.20;99.90;;;;;;5071738;28;20419;-63
2021/05/07 03:05:45;;;;;;;26.08;17.38;;;5.30;99.90;;;;;;5071572;28;20028;-62
2021/05/07 03:08:11;;;;;;;22.55;17.13;;;5.30;99.90;;;;;;5070457;28;20021;-62
2021/05/07 03:10:36;;;;;;;24.40;16.52;;;5.30;99.90;;;;;;5071585;28;20354;-63
2021/05/07 03:13:02;;;;;;;24.35;18.10;;;5.40;99.90;;;;;;5071649;28;20074;-62
2021/05/07 03:15:29;;;;;;;23.90;16.15;;;5.40;99.90;;;;;;5069973;28;20021;-63
2021/05/07 03:17:55;;;;;;;24.83;16.75;;;5.50;99.90;;;;;;5071843;28;20035;-63
2021/05/07 03:20:21;;;;;;;25.17;16.77;;;5.60;99.90;;;;;;5071309;28;20051;-62
2021/05/07 03:22:47;;;;;;;24.42;16.33;;;5.60;99.90;;;;;;5069932;28;20427;-62
2021/05/07 03:25:14;;;;;;;26.20;15.90;;;5.70;99.90;;;;;;5071078;28;20020;-62
2021/05/07 03:27:39;;;;;;;24.80;15.77;;;5.70;99.90;;;;;;5071549;28;20386;-63
2021/05/07 03:30:06;;;;;;;19.58;12.38;;;5.70;99.90;;;;;;5071132;28;20115;-64
2021/05/07 03:32:31;;;;;;;21.13;11.15;;;5.70;99.90;;;;;;5070334;28;20112;-64
2021/05/07 03:34:57;;;;;;;16.60;8.85;;;5.70;99.90;;;;;;5071110;28;20056;-64
2021/05/07 03:37:22;;;;;;;19.73;8.85;;;5.80;99.90;;;;;;5070090;28;20032;-64
2021/05/07 03:39:48;;;;;;;13.60;8.10;;;5.80;99.90;;;;;;5071305;28;20058;-64
2021/05/07 03:42:14;;;;;;;17.50;8.52;;;5.90;99.90;;;;;;5070913;28;20031;-64
2021/05/07 03:44:39;;;;;;;19.75;10.20;;;5.90;99.90;;;;;;5070691;28;20024;-63
2021/05/07 03:47:05;;;;;;;14.55;9.13;;;5.90;99.90;;;;;;5071260;28;20449;-63
2021/05/07 03:49:31;;;;;;;18.05;10.13;;;5.80;99.90;;;;;;5071064;28;20377;-63
2021/05/07 03:52:01;;;;;;;19.58;12.32;;;5.80;99.90;;;;;;5071152;28;20473;-63
2021/05/07 03:54:27;;;;;;;20.77;13.43;;;5.80;99.90;;;;;;5070468;28;20024;-63
2021/05/07 03:56:53;;;;;;;21.45;13.45;;;5.80;99.90;;;;;;5071084;28;20019;-63
2021/05/07 03:59:18;;;;;;;23.05;13.63;;;5.70;99.90;;;;;;5070725;28;20028;-63
2021/05/07 04:01:44;;;;;;;22.27;13.77;;;5.70;99.90;;;;;;5070702;28;20029;-63
2021/05/07 04:04:10;;;;;;;26.27;14.52;;;5.70;99.90;;;;;;5069571;28;20017;-64
2021/05/07 04:06:36;;;;;;;22.67;14.35;;;5.70;99.90;;;;;;5069751;28;20488;-63
2021/05/07 04:09:29;;;;;;;23.15;14.25;;;5.70;99.90;;;;;;5069633;28;20389;-63
2021/05/07 04:11:58;;;;;;;21.45;13.52;;;5.80;99.90;;;;;;5070640;28;20036;-63
2021/05/07 04:14:24;;;;;;;19.45;13.07;;;5.70;99.90;;;;;;5070955;28;20017;-64
2021/05/07 04:16:50;;;;;;;24.10;14.00;;;5.60;99.90;;;;;;5070842;28;20052;-62
2021/05/07 04:19:16;;;;;;;20.92;14.10;;;5.60;99.90;;;;;;5071067;28;20380;-63
2021/05/07 04:21:42;;;;;;;22.40;13.85;;;5.60;99.90;;;;;;5070611;28;20103;-63
2021/05/07 04:24:08;;;;;;;22.13;13.45;;;5.60;99.90;;;;;;5070515;28;20483;-62
2021/05/07 04:26:34;;;;;;;19.00;12.18;;;5.60;99.90;;;;;;5070500;28;20040;-62
2021/05/07 04:28:59;;;;;;;17.85;12.45;;;5.70;99.90;;;;;;5070635;28;20090;-62
2021/05/07 04:31:25;;;;;;;19.85;12.75;;;5.80;99.90;;;;;;5070574;28;20025;-63
2021/05/07 04:33:52;;;;;;;20.58;12.77;;;5.90;99.90;;;;;;5071001;28;20021;-63
2021/05/07 04:36:18;;;;;;;22.67;13.13;;;6.00;99.90;;;;;;5070662;28;20027;-63
2021/05/07 04:38:44;;;;;;;20.40;12.93;;;6.10;99.90;;;;;;5070624;28;20348;-63
2021/05/07 04:41:09;;;;;;;16.88;11.25;;;6.10;99.90;;;;;;5069223;28;20035;-63
2021/05/07 04:43:35;;;;;;;18.10;11.77;;;6.10;99.90;;;;;;5068998;28;20431;-63
2021/05/07 04:46:00;;;;;;;20.27;12.73;;;6.10;99.90;;;;;;5070361;28;20025;-63
2021/05/07 04:48:27;;;;;;;17.38;11.63;;;6.20;99.90;;;;;;5070441;28;20032;-63
2021/05/07 04:50:53;;;;;;;20.10;11.88;;;6.20;99.90;;;;;;5069212;28;20105;-63
2021/05/07 04:53:18;;;;;;;17.98;11.68;;;6.30;99.90;;;;;;5070354;28;20107;-63
2021/05/07 04:55:44;;;;;;;15.55;11.60;;;6.30;99.90;;;;;;5073580;28;20162;-63
2021/05/07 04:58:10;;;;;;;18.73;12.55;;;6.40;99.90;;;;;;5074238;28;21020;-64
2021/05/07 05:00:36;;;;;;;15.07;10.80;;;6.50;99.90;;;;;;5073662;28;20031;-63
2021/05/07 05:03:01;;;;;;;18.02;12.32;;;6.60;99.90;;;;;;5073737;28;20424;-63
2021/05/07 05:05:27;;;;;;;18.52;11.88;;;6.60;99.90;;;;;;5072589;28;20025;-64
2021/05/07 05:07:56;;;;;;;18.75;11.40;;;6.70;99.90;;;;;;5073888;28;20029;-63
2021/05/07 05:10:22;;;;;;;18.67;11.52;;;6.80;99.90;;;;;;5073756;28;20247;-63
2021/05/07 05:12:48;;;;;;;16.23;10.40;;;6.80;99.90;;;;;;5073758;28;20099;-63
2021/05/07 05:15:14;;;;;;;18.27;11.00;;;6.80;99.90;;;;;;5073510;28;20126;-63
2021/05/07 05:17:40;;;;;;;13.68;10.07;;;6.90;99.90;;;;;;5072267;28;20029;-62
2021/05/07 05:20:07;;;;;;;14.02;10.13;;;6.90;99.90;;;;;;5072199;28;20607;-62
2021/05/07 05:22:32;;;;;;;15.07;9.07;;;7.00;99.90;;;;;;5073514;28;20383;-63
2021/05/07 05:25:03;;;;;;;14.95;9.32;;;6.90;99.90;;;;;;5073350;28;20056;-63
2021/05/07 05:27:29;;;;;;;11.75;8.60;;;7.00;99.90;;;;;;5073508;28;20048;-62
2021/05/07 05:29:54;;;;;;;11.82;8.35;;;7.00;99.90;;;;;;5072292;28;20039;-62
2021/05/07 05:32:20;;;;;;;12.95;8.38;;;7.10;99.90;;;;;;5073271;28;20123;-62
2021/05/07 05:34:46;;;;;;;14.70;8.52;;;7.00;99.90;;;;;;5071948;28;20025;-62
2021/05/07 05:37:11;;;;;;;12.80;8.68;;;7.00;99.90;;;;;;5073441;28;20024;-62
2021/05/07 05:39:37;;;;;;;12.10;8.60;;;7.00;99.90;;;;;;5071881;28;20032;-62
2021/05/07 05:42:02;;;;;;;13.57;8.82;;;7.00;99.90;;;;;;5073369;28;20025;-62
2021/05/07 05:44:28;;;;;;;14.07;8.10;;;7.20;99.90;;;;;;5072955;28;20392;-62
2021/05/07 05:46:53;;;;;;;13.32;8.55;;;7.20;99.90;;;;;;5071881;28;20051;-62
2021/05/07 05:49:19;;;;;;;10.20;7.78;;;7.20;99.90;;;;;;5071564;28;20043;-62
2021/05/07 05:51:45;;;;;;;12.57;8.48;;;7.20;99.90;;;;;;5070550;28;20032;-62
2021/05/07 05:54:11;;;;;;;11.65;8.73;;;7.20;99.90;;;;;;5071364;28;20021;-62
2021/05/07 05:56:37;;;;;;;12.02;7.90;;;7.50;99.90;;;;;;5072565;28;20428;-62
2021/05/07 05:59:03;;;;;;;16.05;8.60;;;7.50;99.90;;;;;;5056893;28;20358;-62
2021/05/07 06:01:29;;;;;;;13.02;8.02;;;7.50;99.90;;;;;;5061067;28;20031;-62
2021/05/07 06:03:54;;;;;;;11.80;7.72;;;7.50;99.90;;;;;;5065062;28;20078;-63
2021/05/07 06:06:20;;;;;;;8.73;7.63;;;7.50;99.90;;;;;;5068230;28;20020;-63
2021/05/07 06:08:45;;;;;;;15.25;8.55;;;7.60;99.90;;;;;;5070250;28;20024;-62
2021/05/07 06:11:11;;;;;;;12.43;8.55;;;7.80;99.90;;;;;;5055285;28;20625;-62
2021/05/07 06:13:37;;;;;;;9.15;7.82;;;7.90;99.90;;;;;;5056049;28;20023;-63
2021/05/07 06:16:05;;;;;;;11.43;7.75;;;8.00;99.90;;;;;;5055811;28;20033;-62
2021/05/07 06:18:31;;;;;;;15.35;7.50;;;8.00;99.90;;;;;;5058953;28;20093;-63
2021/05/07 06:20:57;;;;;;;19.60;7.93;;;8.00;99.90;;;;;;5070198;28;20032;-62
2021/05/07 06:23:22;;;;;;;13.23;7.68;;;8.00;99.90;;;;;;5062672;28;20024;-62
2021/05/07 06:25:49;;;;;;;16.88;8.65;;;8.00;99.90;;;;;;5046415;28;20130;-63
2021/05/07 06:28:14;;;;;;;13.13;8.10;;;8.20;99.90;;;;;;5057955;28;20033;-62
2021/05/07 06:30:40;;;;;;;13.65;8.00;;;8.30;99.90;;;;;;5053435;28;20709;-62
2021/05/07 06:33:05;;;;;;;10.05;7.30;;;8.40;99.90;;;;;;5051189;28;20037;-62
2021/05/07 06:35:31;;;;;;;9.95;7.13;;;8.40;99.90;;;;;;5059169;28;20016;-63
2021/05/07 06:37:59;;;;;;;9.93;6.97;;;8.30;99.90;;;;;;5062399;28;20031;-62
2021/05/07 06:40:24;;;;;;;11.50;7.18;;;8.20;99.90;;;;;;5066745;28;20048;-62
2021/05/07 06:42:50;;;;;;;9.93;7.18;;;8.20;99.90;;;;;;5059054;28;20032;-62
2021/05/07 06:45:16;;;;;;;9.00;6.72;;;8.20;99.90;;;;;;5049366;28;20021;-62
2021/05/07 06:47:42;;;;;;;10.52;7.32;;;8.30;99.90;;;;;;5031386;28;20317;-63
2021/05/07 06:50:09;;;;;;;11.77;7.03;;;8.40;99.90;;;;;;5049527;28;20112;-62
2021/05/07 06:52:35;;;;;;;9.60;7.30;;;8.50;99.90;;;;;;5050027;28;20670;-63
2021/05/07 06:55:02;;;;;;;10.40;7.05;;;8.70;99.90;;;;;;5045490;28;20024;-63
2021/05/07 06:57:27;;;;;;;8.82;6.68;;;8.80;99.90;;;;;;5040270;28;20041;-62
2021/05/07 06:59:53;;;;;;;12.93;7.53;;;8.80;99.90;;;;;;5051947;28;20385;-62
2021/05/07 07:02:19;;;;;;;12.13;7.35;;;9.50;99.90;;;;;;5054399;28;20036;-62
2021/05/07 07:04:46;;;;;;;12.23;7.45;;;10.70;99.90;;;;;;5051029;28;20128;-63
2021/05/07 07:07:12;;;;;;;6.97;4.90;;;12.50;99.90;;;;;;5037470;28;20020;-63
2021/05/07 07:09:38;;;;;;;5.10;4.60;;;12.60;99.90;;;;;;5054870;28;20038;-63
2021/05/07 07:12:04;;;;;;;5.88;4.50;;;11.80;99.90;;;;;;5054129;28;20127;-63
2021/05/07 07:14:30;;;;;;;5.70;4.75;;;11.30;99.90;;;;;;5051212;28;20132;-63
2021/05/07 07:16:55;;;;;;;6.25;4.35;;;10.70;99.90;;;;;;5043768;28;20063;-63
2021/05/07 07:19:21;;;;;;;5.18;4.38;;;9.90;99.90;;;;;;5053114;28;20318;-63
2021/05/07 07:21:46;;;;;;;16.38;6.15;;;9.60;99.90;;;;;;5048195;28;20041;-62
2021/05/07 07:24:12;;;;;;;6.60;4.80;;;9.30;99.90;;;;;;5053734;28;20067;-62
2021/05/07 07:26:38;;;;;;;11.23;4.72;;;9.70;99.90;;;;;;5038805;28;20082;-63
2021/05/07 07:29:03;;;;;;;14.43;5.00;;;10.60;99.90;;;;;;5052118;28;20029;-63
2021/05/07 07:31:29;;;;;;;3.80;3.40;;;12.00;99.90;;;;;;5055420;28;20024;-63
2021/05/07 07:33:55;;;;;;;4.93;4.20;;;13.00;99.90;;;;;;5057896;28;20020;-63
2021/05/07 07:36:20;;;;;;;14.38;5.15;;;14.10;99.90;;;;;;5051267;28;20531;-63
2021/05/07 07:38:46;;;;;;;7.30;4.00;;;15.20;95.30;;;;;;5057651;28;20033;-63
2021/05/07 07:41:12;;;;;;;6.45;4.07;;;15.50;93.90;;;;;;5052298;28;20071;-63
2021/05/07 07:43:37;;;;;;;7.80;3.60;;;15.20;94.00;;;;;;5053619;28;20029;-63
2021/05/07 07:46:03;;;;;;;5.30;4.13;;;15.00;93.40;;;;;;5048413;28;20037;-63
2021/05/07 07:48:29;;;;;;;4.05;3.45;;;15.20;94.40;;;;;;5057033;28;20044;-64
2021/05/07 07:50:54;;;;;;;4.25;3.75;;;15.40;93.30;;;;;;5055592;28;20134;-64
2021/05/07 07:53:20;;;;;;;5.30;3.75;;;15.70;92.90;;;;;;5050132;28;20031;-65
2021/05/07 07:55:47;;;;;;;4.13;3.72;;;16.50;85.70;;;;;;5039464;28;20471;-64
2021/05/07 07:58:13;;;;;;;3.90;3.60;;;17.00;84.70;;;;;;5048327;28;20602;-64
2021/05/07 08:00:38;;;;;;;4.22;3.60;;;17.00;79.60;;;;;;5061559;28;20104;-64
2021/05/07 08:03:04;;;;;;;6.07;3.50;;;17.00;86.80;;;;;;5065788;28;20056;-64
2021/05/07 08:05:30;;;;;;;8.40;3.80;;;16.20;87.20;;;;;;5044580;28;20101;-64
2021/05/07 08:07:59;;;;;;;5.45;3.78;;;15.10;94.70;;;;;;5051048;28;20480;-64
2021/05/07 08:10:25;;;;;;;5.30;4.00;;;14.00;98.50;;;;;;5050483;28;20044;-64
2021/05/07 08:12:51;;;;;;;6.43;4.28;;;13.50;99.90;;;;;;5050252;28;20175;-64
2021/05/07 08:15:19;;;;;;;23.75;5.53;;;13.00;99.90;;;;;;5049791;28;20107;-65
2021/05/07 08:17:46;;;;;;;13.73;4.75;;;12.50;99.90;;;;;;5048930;28;20563;-63
2021/05/07 08:20:13;;;;;;;18.23;4.57;;;13.10;99.90;;;;;;5053859;28;20036;-64
2021/05/07 08:22:39;;;;;;;11.55;3.70;;;14.80;98.50;;;;;;5052759;28;20146;-65
2021/05/07 08:25:05;;;;;;;7.93;3.63;;;15.70;92.30;;;;;;5045322;28;21073;-64
2021/05/07 08:27:30;;;;;;;8.48;3.55;;;16.50;88.20;;;;;;5046978;28;20029;-65
2021/05/07 08:29:56;;;;;;;9.15;3.78;;;17.50;78.30;;;;;;5053107;28;20035;-63
2021/05/07 08:32:22;;;;;;;3.63;3.30;;;18.60;62.10;;;;;;5061465;28;20161;-63
2021/05/07 08:34:48;;;;;;;6.32;3.50;;;18.50;57.30;;;;;;5048970;28;20032;-65
2021/05/07 08:37:13;;;;;;;3.53;3.22;;;18.60;58.50;;;;;;5041849;28;20010;-65
2021/05/07 08:39:40;;;;;;;5.95;3.35;;;18.20;59.40;;;;;;5059646;28;20047;-65
2021/05/07 08:42:06;;;;;;;3.95;3.33;;;17.20;62.40;;;;;;5056346;28;20052;-65
2021/05/07 08:44:32;;;;;;;5.10;3.53;;;16.10;77.50;;;;;;5058467;28;20035;-65
2021/05/07 08:46:59;;;;;;;7.32;4.00;;;15.90;87.20;;;;;;5059970;28;20503;-64
2021/05/07 08:49:25;;;;;;;9.07;3.85;;;15.80;80.40;;;;;;5057549;28;20771;-64
2021/05/07 08:51:51;;;;;;;6.20;3.60;;;16.20;76.40;;;;;;5051535;28;20493;-64
2021/05/07 08:54:17;;;;;;;3.85;3.45;;;15.70;78.20;;;;;;5060221;28;20107;-65
2021/05/07 08:56:44;;;;;;;5.18;3.25;;;16.90;71.30;;;;;;5056269;28;20033;-64
2021/05/07 08:59:09;;;;;;;4.32;3.50;;;17.40;61.40;;;;;;5063175;28;20558;-65
2021/05/07 09:01:46;;;;;;;6.90;3.22;;;17.20;59.40;;;;;;5059677;28;20024;-65
2021/05/07 09:04:14;;;;;;;4.07;2.88;;;18.30;57.70;;;;;;5059820;28;20392;-64
2021/05/07 09:06:49;;;;;;;5.97;3.20;;;18.50;52.90;;;;;;5047539;28;20027;-63
2021/05/07 09:09:17;;;;;;;4.75;2.95;;;19.00;52.20;;;;;;5059188;28;20040;-63
2021/05/07 09:11:43;;;;;;;4.10;3.00;;;19.20;52.00;;;;;;5056877;28;20382;-62
2021/05/07 09:14:10;;;;;;;3.88;3.20;;;19.30;50.70;;;;;;5061328;28;20020;-62
2021/05/07 09:16:36;;;;;;;4.68;3.30;;;19.10;51.40;;;;;;5051946;28;20243;-64
2021/05/07 09:19:02;;;;;;;6.22;3.63;;;17.40;55.10;;;;;;5056903;28;20025;-64
2021/05/07 09:21:27;;;;;;;5.63;3.70;;;16.00;59.90;;;;;;5056835;28;20548;-64
2021/05/07 09:23:53;;;;;;;8.27;3.42;;;14.70;72.50;;;;;;5060206;28;20041;-64
2021/05/07 09:26:18;;;;;;;4.57;3.47;;;15.00;80.60;;;;;;5038595;28;20424;-64
2021/05/07 09:28:52;;;;;;;4.65;3.78;;;16.00;70.50;;;;;;5057146;28;20033;-64
2021/05/07 09:31:19;;;;;;;5.82;4.13;;;16.70;67.90;;;;;;5052367;28;20031;-64
2021/05/07 09:33:49;;;;;;;7.93;3.85;;;16.10;70.00;;;;;;5052609;28;20035;-65
2021/05/07 09:36:29;;;;;;;5.25;3.30;;;15.10;76.30;;;;;;5042453;28;21071;-65
2021/05/07 09:38:59;;;;;;;4.68;3.50;;;14.70;78.30;;;;;;5057018;28;20034;-64
2021/05/07 09:41:25;;;;;;;3.58;3.28;;;15.50;67.70;;;;;;5062084;28;20037;-64
2021/05/07 09:43:50;;;;;;;4.57;3.60;;;15.70;62.30;;;;;;5057440;28;20059;-64
2021/05/07 09:46:16;;;;;;;5.43;4.18;;;16.30;59.70;;;;;;5041020;28;20040;-64
2021/05/07 09:48:42;;;;;;;5.05;4.20;;;16.80;63.10;;;;;;5053566;28;20079;-64
2021/05/07 09:51:09;;;;;;;4.38;3.95;;;16.10;63.50;;;;;;5061588;28;20060;-64
2021/05/07 09:53:39;;;;;;;3.58;3.20;;;15.20;64.50;;;;;;5051425;28;20032;-65
2021/05/07 09:56:12;;;;;;;4.22;3.80;;;14.80;64.00;;;;;;5047712;28;20032;-65
2021/05/07 09:58:39;;;;;;;6.93;3.88;;;14.20;68.90;;;;;;5055769;28;20477;-64
2021/05/07 10:01:06;;;;;;;4.25;3.83;;;14.00;75.00;;;;;;5055810;28;20374;-65
2021/05/07 10:03:32;;;;;;;6.57;4.45;;;14.70;73.40;;;;;;5053589;28;20469;-64
2021/05/07 10:05:57;;;;;;;6.25;4.25;;;15.80;67.50;;;;;;5042931;28;20040;-63
2021/05/07 10:08:24;;;;;;;4.90;4.40;;;15.80;67.40;;;;;;5063558;28;20420;-63
2021/05/07 10:10:57;;;;;;;5.22;4.35;;;15.90;67.40;;;;;;5053075;28;20049;-64
2021/05/07 10:13:31;;;;;;;5.10;4.55;;;16.20;64.10;;;;;;5060883;28;20513;-63
2021/05/07 10:16:04;;;;;;;5.45;4.30;;;15.60;63.00;;;;;;5056686;28;20441;-62
2021/05/07 10:18:34;;;;;;;5.70;4.45;;;15.80;66.00;;;;;;5064596;28;20139;-62
2021/05/07 10:21:06;;;;;;;5.43;4.05;;;16.20;69.50;;;;;;5054523;28;20055;-63
2021/05/07 10:23:33;;;;;;;7.13;3.95;;;17.40;61.30;;;;;;5053816;28;20031;-65
2021/05/07 10:26:09;;;;;;;7.47;4.05;;;17.50;56.60;;;;;;5043945;28;20493;-65
2021/05/07 10:28:52;;;;;;;5.20;4.10;;;17.90;58.70;;;;;;5050193;28;20119;-65
2021/05/07 10:31:20;;;;;;;10.18;3.90;;;18.80;53.90;;;;;;5053097;28;20047;-64
2021/05/07 10:34:00;;;;;;;4.90;3.88;;;19.30;50.60;;;;;;5057974;28;20037;-65
2021/05/07 10:36:47;;;;;;;4.10;3.70;;;19.20;48.60;;;;;;5044284;28;20447;-65
2021/05/07 10:39:24;;;;;;;5.90;3.63;;;18.30;47.00;;;;;;5057523;28;20333;-65
2021/05/07 10:41:51;;;;;;;6.03;3.60;;;18.30;49.00;;;;;;5053272;28;20536;-65
2021/05/07 10:44:22;;;;;;;13.13;4.78;;;18.50;48.10;;;;;;5057132;28;20032;-65
2021/05/07 10:46:59;;;;;;;11.32;4.85;;;18.90;49.50;;;;;;5040539;28;20090;-67
2021/05/07 10:49:39;;;;;;;7.65;4.65;;;18.60;51.30;;;;;;5056507;28;20020;-64
2021/05/07 10:52:06;;;;;;;7.03;4.78;;;17.80;51.30;;;;;;5055008;28;20021;-65
2021/05/07 10:54:39;;;;;;;10.23;4.60;;;17.60;52.90;;;;;;5057913;28;20017;-65
2021/05/07 10:57:17;;;;;;;5.10;4.60;;;18.00;51.90;;;;;;5048017;28;20037;-66
2021/05/07 11:00:15;;;;;;;5.70;4.35;;;18.10;51.40;;;;;;5058338;28;20024;-65
2021/05/07 11:02:52;;;;;;;6.25;4.25;;;17.90;49.20;;;;;;5057550;28;20428;-66
2021/05/07 11:05:40;;;;;;;10.07;4.22;;;18.40;49.60;;;;;;5045516;28;20032;-65
2021/05/07 11:08:06;;;;;;;5.45;4.07;;;19.20;47.10;;;;;;5054198;28;20086;-66
2021/05/07 11:10:32;;;;;;;4.47;4.07;;;20.60;43.70;;;;;;5048722;28;20024;-66
2021/05/07 11:12:58;;;;;;;5.20;4.80;;;18.20;45.50;;;;;;5056494;28;20524;-66
2021/05/07 11:15:23;;;;;;;5.93;5.43;;;15.90;52.10;;;;;;5055411;28;20021;-65
2021/05/07 11:18:11;;;;;;;5.32;4.82;;;15.00;55.70;;;;;;5046922;28;20043;-64
2021/05/07 11:20:42;;;;;;;5.25;4.22;;;15.90;55.40;;;;;;5061048;28;20133;-65
2021/05/07 11:23:13;;;;;;;5.63;4.40;;;17.00;50.60;;;;;;5054479;28;20028;-65
2021/05/07 11:25:40;;;;;;;4.90;4.40;;;18.00;47.30;;;;;;5044172;28;20075;-65
2021/05/07 11:28:20;;;;;;;4.90;4.50;;;18.50;46.00;;;;;;5060620;28;20159;-65
2021/05/07 11:30:53;;;;;;;16.20;5.30;;;19.50;43.90;;;;;;5049722;28;20024;-65
2021/05/07 11:33:21;;;;;;;4.65;3.40;;;19.20;43.40;;;;;;5058639;28;20068;-65
2021/05/07 11:35:47;;;;;;;4.00;3.70;;;19.50;42.30;;;;;;5047302;28;20116;-65
2021/05/07 11:38:16;;;;;;;4.47;4.07;;;19.90;40.20;;;;;;5046295;28;20064;-65
2021/05/07 11:40:42;;;;;;;6.95;4.13;;;18.90;40.80;;;;;;5074192;28;20401;-65
2021/05/07 11:43:13;;;;;;;4.60;4.20;;;19.50;43.40;;;;;;5050306;28;20140;-65
2021/05/07 11:45:39;;;;;;;4.57;4.18;;;20.10;43.40;;;;;;5045588;28;20086;-64
2021/05/07 11:48:10;;;;;;;3.72;3.42;;;19.60;44.10;;;;;;5054139;28;20131;-64
2021/05/07 11:50:37;;;;;;;5.57;3.75;;;19.50;41.90;;;;;;5057932;28;20039;-64
2021/05/07 11:53:03;;;;;;;4.03;3.72;;;19.40;40.60;;;;;;5055308;28;20066;-64
2021/05/07 11:55:31;;;;;;;4.70;3.58;;;19.90;40.90;;;;;;5050664;28;20523;-65
2021/05/07 11:58:07;;;;;;;4.63;3.50;;;20.50;39.60;;;;;;5068091;28;20028;-63
2021/05/07 12:00:35;;;;;;;4.30;3.65;;;21.10;39.10;;;;;;5060745;28;20862;-61
2021/05/07 12:03:07;;;;;;;5.22;3.20;;;22.20;37.60;;;;;;5057849;28;20119;-62
2021/05/07 12:05:36;;;;;;;4.43;3.03;;;22.80;35.60;;;;;;5048269;28;20036;-62
2021/05/07 12:08:03;;;;;;;7.85;3.60;;;22.50;35.30;;;;;;5052239;28;20029;-62
2021/05/07 12:10:29;;;;;;;11.68;3.50;;;22.00;35.50;;;;;;5048389;28;20036;-63
2021/05/07 12:12:57;;;;;;;5.88;3.28;;;22.60;35.80;;;;;;5056072;28;20128;-62
2021/05/07 12:15:30;;;;;;;3.95;3.45;;;23.10;35.70;;;;;;5049689;28;20013;-64
2021/05/07 12:17:56;;;;;;;3.53;3.22;;;21.40;39.10;;;;;;5046309;28;20020;-62
2021/05/07 12:20:24;;;;;;;3.78;3.45;;;21.60;35.70;;;;;;5050784;28;20126;-61
2021/05/07 12:22:52;;;;;;;5.07;3.20;;;21.80;35.40;;;;;;5053248;28;20085;-60
2021/05/07 12:25:22;;;;;;;4.88;3.00;;;22.10;35.80;;;;;;5047785;28;20106;-63
2021/05/07 12:27:50;;;;;;;3.97;3.45;;;21.70;35.90;;;;;;5056447;28;20118;-63
2021/05/07 12:30:33;;;;;;;4.93;2.90;;;21.20;36.50;;;;;;5057204;28;20042;-64
2021/05/07 12:33:03;;;;;;;3.30;2.95;;;20.30;36.90;;;;;;5053635;28;20050;-63
2021/05/07 12:35:46;;;;;;;4.20;2.53;;;20.60;36.70;;;;;;5047114;28;20013;-65
2021/05/07 12:38:22;;;;;;;3.42;2.95;;;21.10;35.10;;;;;;5054091;28;20551;-63
2021/05/07 12:40:49;;;;;;;3.65;3.35;;;20.20;34.30;;;;;;5054518;28;20047;-64
2021/05/07 12:43:15;;;;;;;9.73;2.78;;;18.70;38.60;;;;;;5055584;28;20124;-64
2021/05/07 12:45:47;;;;;;;3.15;2.78;;;19.60;38.60;;;;;;5046154;28;20461;-64